sensor_id;sensor_type;location;lat;lon;timestamp;temperature;humidity
28552;DHT22;15752;49.560;8.708;2023-03-02T00:01:50;6.50;91.10
28552;DHT22;15752;49.560;8.708;2023-03-02T00:04:23;6.50;91.10
28552;DHT22;15752;49.560;8.708;2023-03-02T00:06:57;6.40;91.10
28552;DHT22;15752;49.560;8.708;2023-03-02T00:09:28;6.40;91.10
28552;DHT22;15752;49.560;8.708;2023-03-02T00:11:58;6.70;91.10
28552;DHT22;15752;49.560;8.708;2023-03-02T00:14:27;6.40;90.70
28552;DHT22;15752;49.560;8.708;2023-03-02T00:16:56;6.40;91.10
28552;DHT22;15752;49.560;8.708;2023-03-02T00:19:24;6.40;90.80
28552;DHT22;15752;49.560;8.708;2023-03-02T00:21:53;6.40;91.10
28552;DHT22;15752;49.560;8.708;2023-03-02T00:24:21;6.40;91.10
28552;DHT22;15752;49.560;8.708;2023-03-02T00:26:49;6.40;90.90
28552;DHT22;15752;49.560;8.708;2023-03-02T00:29:19;6.40;90.90
28552;DHT22;15752;49.560;8.708;2023-03-02T00:31:47;6.30;91.10
28552;DHT22;15752;49.560;8.708;2023-03-02T00:34:16;6.30;91.00
28552;DHT22;15752;49.560;8.708;2023-03-02T00:36:44;6.30;91.20
28552;DHT22;15752;49.560;8.708;2023-03-02T00:39:15;6.30;91.00
28552;DHT22;15752;49.560;8.708;2023-03-02T00:41:46;6.30;91.00
28552;DHT22;15752;49.560;8.708;2023-03-02T00:44:15;6.30;91.10
28552;DHT22;15752;49.560;8.708;2023-03-02T00:46:45;6.30;91.20
28552;DHT22;15752;49.560;8.708;2023-03-02T00:49:14;6.30;91.20
28552;DHT22;15752;49.560;8.708;2023-03-02T00:51:42;6.30;91.30
28552;DHT22;15752;49.560;8.708;2023-03-02T00:54:10;6.30;91.10
28552;DHT22;15752;49.560;8.708;2023-03-02T00:56:39;6.30;91.20
28552;DHT22;15752;49.560;8.708;2023-03-02T00:59:09;6.30;91.10
28552;DHT22;15752;49.560;8.708;2023-03-02T01:02:00;6.30;91.60
28552;DHT22;15752;49.560;8.708;2023-03-02T01:04:33;6.30;91.40
28552;DHT22;15752;49.560;8.708;2023-03-02T01:07:07;6.70;91.70
28552;DHT22;15752;49.560;8.708;2023-03-02T01:09:36;6.60;91.70
28552;DHT22;15752;49.560;8.708;2023-03-02T01:12:05;6.30;91.40
28552;DHT22;15752;49.560;8.708;2023-03-02T01:14:38;6.60;91.50
28552;DHT22;15752;49.560;8.708;2023-03-02T01:17:09;6.30;91.60
28552;DHT22;15752;49.560;8.708;2023-03-02T01:19:39;6.70;91.70
28552;DHT22;15752;49.560;8.708;2023-03-02T01:22:08;6.30;91.60
28552;DHT22;15752;49.560;8.708;2023-03-02T01:24:37;6.30;91.60
28552;DHT22;15752;49.560;8.708;2023-03-02T01:27:05;6.30;91.20
28552;DHT22;15752;49.560;8.708;2023-03-02T01:29:34;6.40;91.50
28552;DHT22;15752;49.560;8.708;2023-03-02T01:32:02;6.30;91.50
28552;DHT22;15752;49.560;8.708;2023-03-02T01:34:46;6.30;91.60
28552;DHT22;15752;49.560;8.708;2023-03-02T01:37:15;6.50;91.50
28552;DHT22;15752;49.560;8.708;2023-03-02T01:39:43;6.30;91.40
28552;DHT22;15752;49.560;8.708;2023-03-02T01:42:11;6.20;91.20
28552;DHT22;15752;49.560;8.708;2023-03-02T01:44:42;6.20;91.50
28552;DHT22;15752;49.560;8.708;2023-03-02T01:47:16;6.20;92.00
28552;DHT22;15752;49.560;8.708;2023-03-02T01:49:58;6.50;91.80
28552;DHT22;15752;49.560;8.708;2023-03-02T01:52:34;6.20;91.70
28552;DHT22;15752;49.560;8.708;2023-03-02T01:55:09;6.30;91.70
28552;DHT22;15752;49.560;8.708;2023-03-02T01:57:43;6.20;91.70
28552;DHT22;15752;49.560;8.708;2023-03-02T02:00:17;6.20;91.70
28552;DHT22;15752;49.560;8.708;2023-03-02T02:02:49;6.10;91.60
28552;DHT22;15752;49.560;8.708;2023-03-02T02:05:24;6.10;91.70
28552;DHT22;15752;49.560;8.708;2023-03-02T02:07:53;6.40;91.80
28552;DHT22;15752;49.560;8.708;2023-03-02T02:10:21;6.10;91.50
28552;DHT22;15752;49.560;8.708;2023-03-02T02:12:50;6.10;91.60
28552;DHT22;15752;49.560;8.708;2023-03-02T02:15:18;6.10;91.60
28552;DHT22;15752;49.560;8.708;2023-03-02T02:17:47;6.00;91.60
28552;DHT22;15752;49.560;8.708;2023-03-02T02:20:22;6.20;91.60
28552;DHT22;15752;49.560;8.708;2023-03-02T02:23:04;6.00;91.80
28552;DHT22;15752;49.560;8.708;2023-03-02T02:28:33;6.00;91.90
28552;DHT22;15752;49.560;8.708;2023-03-02T02:31:06;5.90;91.70
28552;DHT22;15752;49.560;8.708;2023-03-02T02:33:39;5.90;91.80
28552;DHT22;15752;49.560;8.708;2023-03-02T02:36:14;5.90;91.90
28552;DHT22;15752;49.560;8.708;2023-03-02T02:38:46;5.90;91.80
28552;DHT22;15752;49.560;8.708;2023-03-02T02:41:20;6.10;91.90
28552;DHT22;15752;49.560;8.708;2023-03-02T02:43:51;6.00;92.00
28552;DHT22;15752;49.560;8.708;2023-03-02T02:46:21;5.80;92.00
28552;DHT22;15752;49.560;8.708;2023-03-02T02:48:49;5.80;92.00
28552;DHT22;15752;49.560;8.708;2023-03-02T02:51:21;6.10;92.10
28552;DHT22;15752;49.560;8.708;2023-03-02T02:53:55;5.80;92.10
28552;DHT22;15752;49.560;8.708;2023-03-02T02:56:31;5.80;92.10
28552;DHT22;15752;49.560;8.708;2023-03-02T02:59:05;6.10;92.10
28552;DHT22;15752;49.560;8.708;2023-03-02T03:01:34;5.90;92.20
28552;DHT22;15752;49.560;8.708;2023-03-02T03:04:05;5.70;91.90
28552;DHT22;15752;49.560;8.708;2023-03-02T03:06:35;5.70;92.00
28552;DHT22;15752;49.560;8.708;2023-03-02T03:09:11;5.70;92.20
28552;DHT22;15752;49.560;8.708;2023-03-02T03:11:48;6.00;91.90
28552;DHT22;15752;49.560;8.708;2023-03-02T03:14:21;5.60;92.10
28552;DHT22;15752;49.560;8.708;2023-03-02T03:16:53;5.60;92.10
28552;DHT22;15752;49.560;8.708;2023-03-02T03:19:23;5.60;92.00
28552;DHT22;15752;49.560;8.708;2023-03-02T03:21:55;5.60;92.10
28552;DHT22;15752;49.560;8.708;2023-03-02T03:24:29;5.60;92.10
28552;DHT22;15752;49.560;8.708;2023-03-02T03:26:59;5.60;92.20
28552;DHT22;15752;49.560;8.708;2023-03-02T03:29:36;5.60;92.20
28552;DHT22;15752;49.560;8.708;2023-03-02T03:32:08;5.50;92.30
28552;DHT22;15752;49.560;8.708;2023-03-02T03:34:37;5.50;92.00
28552;DHT22;15752;49.560;8.708;2023-03-02T03:37:15;5.50;92.20
28552;DHT22;15752;49.560;8.708;2023-03-02T03:39:46;5.50;92.30
28552;DHT22;15752;49.560;8.708;2023-03-02T03:42:16;5.50;92.10
28552;DHT22;15752;49.560;8.708;2023-03-02T03:44:46;5.50;92.20
28552;DHT22;15752;49.560;8.708;2023-03-02T03:47:15;5.50;92.00
28552;DHT22;15752;49.560;8.708;2023-03-02T03:49:43;5.50;92.00
28552;DHT22;15752;49.560;8.708;2023-03-02T03:52:12;5.70;92.10
28552;DHT22;15752;49.560;8.708;2023-03-02T03:54:41;5.40;92.40
28552;DHT22;15752;49.560;8.708;2023-03-02T03:57:09;5.60;92.20
28552;DHT22;15752;49.560;8.708;2023-03-02T03:59:38;5.40;92.20
28552;DHT22;15752;49.560;8.708;2023-03-02T04:02:08;5.40;92.20
28552;DHT22;15752;49.560;8.708;2023-03-02T04:04:40;5.40;92.10
28552;DHT22;15752;49.560;8.708;2023-03-02T04:07:13;5.40;92.20
28552;DHT22;15752;49.560;8.708;2023-03-02T04:09:43;5.40;92.50
28552;DHT22;15752;49.560;8.708;2023-03-02T04:12:13;5.40;92.40
28552;DHT22;15752;49.560;8.708;2023-03-02T04:14:46;5.40;92.60
28552;DHT22;15752;49.560;8.708;2023-03-02T04:17:16;5.60;92.10
28552;DHT22;15752;49.560;8.708;2023-03-02T04:19:47;5.40;92.10
28552;DHT22;15752;49.560;8.708;2023-03-02T04:22:15;5.40;92.40
28552;DHT22;15752;49.560;8.708;2023-03-02T04:24:46;5.60;92.50
28552;DHT22;15752;49.560;8.708;2023-03-02T04:27:16;5.40;92.60
28552;DHT22;15752;49.560;8.708;2023-03-02T04:29:45;5.40;92.60
28552;DHT22;15752;49.560;8.708;2023-03-02T04:32:15;5.40;92.40
28552;DHT22;15752;49.560;8.708;2023-03-02T04:34:49;5.40;92.60
28552;DHT22;15752;49.560;8.708;2023-03-02T04:37:17;5.30;92.30
28552;DHT22;15752;49.560;8.708;2023-03-02T04:39:46;5.30;92.30
28552;DHT22;15752;49.560;8.708;2023-03-02T04:42:17;5.30;92.40
28552;DHT22;15752;49.560;8.708;2023-03-02T04:44:46;5.30;92.50
28552;DHT22;15752;49.560;8.708;2023-03-02T04:47:16;5.50;92.50
28552;DHT22;15752;49.560;8.708;2023-03-02T04:49:44;5.40;92.60
28552;DHT22;15752;49.560;8.708;2023-03-02T04:52:13;5.30;92.20
28552;DHT22;15752;49.560;8.708;2023-03-02T04:54:41;5.30;92.30
28552;DHT22;15752;49.560;8.708;2023-03-02T04:57:09;5.30;92.30
28552;DHT22;15752;49.560;8.708;2023-03-02T04:59:38;5.30;92.20
28552;DHT22;15752;49.560;8.708;2023-03-02T05:02:06;5.30;92.60
28552;DHT22;15752;49.560;8.708;2023-03-02T05:04:36;5.20;92.50
28552;DHT22;15752;49.560;8.708;2023-03-02T05:07:06;5.30;92.60
28552;DHT22;15752;49.560;8.708;2023-03-02T05:09:34;5.20;92.80
28552;DHT22;15752;49.560;8.708;2023-03-02T05:12:04;5.20;92.30
28552;DHT22;15752;49.560;8.708;2023-03-02T05:14:32;5.20;92.70
28552;DHT22;15752;49.560;8.708;2023-03-02T05:17:01;5.20;92.40
28552;DHT22;15752;49.560;8.708;2023-03-02T05:19:29;5.20;92.40
28552;DHT22;15752;49.560;8.708;2023-03-02T05:21:59;5.20;92.60
28552;DHT22;15752;49.560;8.708;2023-03-02T05:24:27;5.50;92.70
28552;DHT22;15752;49.560;8.708;2023-03-02T05:26:56;5.20;92.60
28552;DHT22;15752;49.560;8.708;2023-03-02T05:29:24;5.20;92.60
28552;DHT22;15752;49.560;8.708;2023-03-02T05:31:52;5.20;92.60
28552;DHT22;15752;49.560;8.708;2023-03-02T05:34:21;5.10;92.60
28552;DHT22;15752;49.560;8.708;2023-03-02T05:36:49;5.20;92.40
28552;DHT22;15752;49.560;8.708;2023-03-02T05:39:19;5.40;92.60
28552;DHT22;15752;49.560;8.708;2023-03-02T05:41:47;5.40;92.60
28552;DHT22;15752;49.560;8.708;2023-03-02T05:44:15;5.10;92.60
28552;DHT22;15752;49.560;8.708;2023-03-02T05:46:44;5.10;92.70
28552;DHT22;15752;49.560;8.708;2023-03-02T05:49:12;5.10;92.60
28552;DHT22;15752;49.560;8.708;2023-03-02T05:51:40;5.10;92.70
28552;DHT22;15752;49.560;8.708;2023-03-02T05:54:09;5.10;92.50
28552;DHT22;15752;49.560;8.708;2023-03-02T05:56:39;5.10;92.50
28552;DHT22;15752;49.560;8.708;2023-03-02T05:59:08;5.10;92.70
28552;DHT22;15752;49.560;8.708;2023-03-02T06:01:36;5.10;92.60
28552;DHT22;15752;49.560;8.708;2023-03-02T06:04:04;5.10;92.60
28552;DHT22;15752;49.560;8.708;2023-03-02T06:06:33;5.00;92.70
28552;DHT22;15752;49.560;8.708;2023-03-02T06:09:02;5.00;92.70
28552;DHT22;15752;49.560;8.708;2023-03-02T06:11:30;5.10;92.90
28552;DHT22;15752;49.560;8.708;2023-03-02T06:14:00;5.00;92.90
28552;DHT22;15752;49.560;8.708;2023-03-02T06:16:28;5.00;92.90
28552;DHT22;15752;49.560;8.708;2023-03-02T06:18:58;5.20;92.60
28552;DHT22;15752;49.560;8.708;2023-03-02T06:21:26;5.00;92.80
28552;DHT22;15752;49.560;8.708;2023-03-02T06:23:54;5.00;92.50
28552;DHT22;15752;49.560;8.708;2023-03-02T06:26:23;5.00;92.80
28552;DHT22;15752;49.560;8.708;2023-03-02T06:28:51;5.30;93.10
28552;DHT22;15752;49.560;8.708;2023-03-02T06:31:21;5.00;93.00
28552;DHT22;15752;49.560;8.708;2023-03-02T06:33:50;5.00;93.00
28552;DHT22;15752;49.560;8.708;2023-03-02T06:36:18;5.00;93.00
28552;DHT22;15752;49.560;8.708;2023-03-02T06:38:46;5.00;93.00
28552;DHT22;15752;49.560;8.708;2023-03-02T06:41:15;5.00;93.00
28552;DHT22;15752;49.560;8.708;2023-03-02T06:43:44;5.00;92.90
28552;DHT22;15752;49.560;8.708;2023-03-02T06:46:12;5.00;92.90
28552;DHT22;15752;49.560;8.708;2023-03-02T06:48:42;5.00;92.90
28552;DHT22;15752;49.560;8.708;2023-03-02T06:51:10;5.00;93.10
28552;DHT22;15752;49.560;8.708;2023-03-02T06:53:39;5.00;92.80
28552;DHT22;15752;49.560;8.708;2023-03-02T06:56:08;5.00;92.60
28552;DHT22;15752;49.560;8.708;2023-03-02T06:58:36;5.00;92.80
28552;DHT22;15752;49.560;8.708;2023-03-02T07:01:05;5.00;92.90
28552;DHT22;15752;49.560;8.708;2023-03-02T07:03:34;5.00;92.40
28552;DHT22;15752;49.560;8.708;2023-03-02T07:06:05;5.40;93.20
28552;DHT22;15752;49.560;8.708;2023-03-02T07:08:33;5.00;93.40
28552;DHT22;15752;49.560;8.708;2023-03-02T07:11:04;5.10;93.30
28552;DHT22;15752;49.560;8.708;2023-03-02T07:13:33;5.10;93.50
28552;DHT22;15752;49.560;8.708;2023-03-02T07:16:08;5.10;92.90
28552;DHT22;15752;49.560;8.708;2023-03-02T07:18:37;5.10;93.50
28552;DHT22;15752;49.560;8.708;2023-03-02T07:21:07;5.40;93.50
28552;DHT22;15752;49.560;8.708;2023-03-02T07:23:36;5.10;93.00
28552;DHT22;15752;49.560;8.708;2023-03-02T07:26:04;5.10;93.10
28552;DHT22;15752;49.560;8.708;2023-03-02T07:28:35;5.20;92.80
28552;DHT22;15752;49.560;8.708;2023-03-02T07:31:05;5.20;93.20
28552;DHT22;15752;49.560;8.708;2023-03-02T07:33:34;5.20;93.50
28552;DHT22;15752;49.560;8.708;2023-03-02T07:36:04;5.20;93.30
28552;DHT22;15752;49.560;8.708;2023-03-02T07:38:35;5.20;93.50
28552;DHT22;15752;49.560;8.708;2023-03-02T07:41:07;5.60;93.70
28552;DHT22;15752;49.560;8.708;2023-03-02T07:43:37;5.70;93.70
28552;DHT22;15752;49.560;8.708;2023-03-02T07:46:05;5.30;93.50
28552;DHT22;15752;49.560;8.708;2023-03-02T07:48:34;5.30;93.50
28552;DHT22;15752;49.560;8.708;2023-03-02T07:51:04;5.30;93.60
28552;DHT22;15752;49.560;8.708;2023-03-02T07:53:34;5.30;93.60
28552;DHT22;15752;49.560;8.708;2023-03-02T07:56:07;5.40;93.60
28552;DHT22;15752;49.560;8.708;2023-03-02T07:58:37;5.40;93.70
28552;DHT22;15752;49.560;8.708;2023-03-02T08:01:05;5.40;93.50
28552;DHT22;15752;49.560;8.708;2023-03-02T08:03:35;5.50;93.60
28552;DHT22;15752;49.560;8.708;2023-03-02T08:06:05;5.50;93.70
28552;DHT22;15752;49.560;8.708;2023-03-02T08:08:36;5.50;93.70
28552;DHT22;15752;49.560;8.708;2023-03-02T08:11:05;5.50;93.80
28552;DHT22;15752;49.560;8.708;2023-03-02T08:13:34;5.60;93.80
28552;DHT22;15752;49.560;8.708;2023-03-02T08:16:05;5.60;93.70
28552;DHT22;15752;49.560;8.708;2023-03-02T08:18:35;5.70;93.90
28552;DHT22;15752;49.560;8.708;2023-03-02T08:21:09;5.70;93.80
28552;DHT22;15752;49.560;8.708;2023-03-02T08:23:40;5.80;93.80
28552;DHT22;15752;49.560;8.708;2023-03-02T08:26:09;6.10;93.30
28552;DHT22;15752;49.560;8.708;2023-03-02T08:28:42;5.90;93.80
28552;DHT22;15752;49.560;8.708;2023-03-02T08:31:11;5.90;93.60
28552;DHT22;15752;49.560;8.708;2023-03-02T08:33:40;6.20;93.90
28552;DHT22;15752;49.560;8.708;2023-03-02T08:36:12;6.00;93.80
28552;DHT22;15752;49.560;8.708;2023-03-02T08:38:42;6.20;93.80
28552;DHT22;15752;49.560;8.708;2023-03-02T08:41:13;6.10;93.80
28552;DHT22;15752;49.560;8.708;2023-03-02T08:43:42;6.20;93.80
28552;DHT22;15752;49.560;8.708;2023-03-02T08:46:12;6.20;93.50
28552;DHT22;15752;49.560;8.708;2023-03-02T08:48:42;6.30;93.80
28552;DHT22;15752;49.560;8.708;2023-03-02T08:51:13;6.40;93.50
28552;DHT22;15752;49.560;8.708;2023-03-02T08:53:46;6.40;93.70
28552;DHT22;15752;49.560;8.708;2023-03-02T08:56:18;6.50;93.70
28552;DHT22;15752;49.560;8.708;2023-03-02T08:58:48;6.50;93.70
28552;DHT22;15752;49.560;8.708;2023-03-02T09:01:19;6.60;93.70
28552;DHT22;15752;49.560;8.708;2023-03-02T09:03:49;6.70;93.60
28552;DHT22;15752;49.560;8.708;2023-03-02T09:06:17;6.70;93.40
28552;DHT22;15752;49.560;8.708;2023-03-02T09:08:47;6.80;93.80
28552;DHT22;15752;49.560;8.708;2023-03-02T09:11:16;6.90;93.50
28552;DHT22;15752;49.560;8.708;2023-03-02T09:13:45;6.90;93.50
28552;DHT22;15752;49.560;8.708;2023-03-02T09:16:14;7.30;93.40
28552;DHT22;15752;49.560;8.708;2023-03-02T09:18:43;7.10;93.50
28552;DHT22;15752;49.560;8.708;2023-03-02T09:21:11;7.10;93.30
28552;DHT22;15752;49.560;8.708;2023-03-02T09:23:40;7.50;93.20
28552;DHT22;15752;49.560;8.708;2023-03-02T09:26:10;7.50;93.40
28552;DHT22;15752;49.560;8.708;2023-03-02T09:28:38;7.30;92.90
28552;DHT22;15752;49.560;8.708;2023-03-02T09:31:07;7.70;93.10
28552;DHT22;15752;49.560;8.708;2023-03-02T09:33:38;7.50;93.10
28552;DHT22;15752;49.560;8.708;2023-03-02T09:36:09;7.50;92.60
28552;DHT22;15752;49.560;8.708;2023-03-02T09:38:41;7.60;93.30
28552;DHT22;15752;49.560;8.708;2023-03-02T09:41:41;7.70;93.40
28552;DHT22;15752;49.560;8.708;2023-03-02T09:44:37;7.70;93.40
28552;DHT22;15752;49.560;8.708;2023-03-02T09:47:18;8.10;93.40
28552;DHT22;15752;49.560;8.708;2023-03-02T09:50:10;7.90;93.10
28552;DHT22;15752;49.560;8.708;2023-03-02T09:52:49;8.00;93.20
28552;DHT22;15752;49.560;8.708;2023-03-02T09:55:23;8.10;93.10
28552;DHT22;15752;49.560;8.708;2023-03-02T09:57:56;8.10;93.00
28552;DHT22;15752;49.560;8.708;2023-03-02T10:00:29;8.50;93.20
28552;DHT22;15752;49.560;8.708;2023-03-02T10:03:01;8.20;93.00
28552;DHT22;15752;49.560;8.708;2023-03-02T10:05:44;8.30;93.00
28552;DHT22;15752;49.560;8.708;2023-03-02T10:08:15;8.30;92.90
28552;DHT22;15752;49.560;8.708;2023-03-02T10:10:52;8.40;92.90
28552;DHT22;15752;49.560;8.708;2023-03-02T10:13:28;8.70;93.00
28552;DHT22;15752;49.560;8.708;2023-03-02T10:16:08;8.70;92.90
28552;DHT22;15752;49.560;8.708;2023-03-02T10:18:44;8.60;92.90
28552;DHT22;15752;49.560;8.708;2023-03-02T10:21:21;8.60;92.80
28552;DHT22;15752;49.560;8.708;2023-03-02T10:23:55;8.70;92.90
28552;DHT22;15752;49.560;8.708;2023-03-02T10:26:37;8.90;93.00
28552;DHT22;15752;49.560;8.708;2023-03-02T10:29:28;8.80;92.90
28552;DHT22;15752;49.560;8.708;2023-03-02T10:32:10;8.90;92.90
28552;DHT22;15752;49.560;8.708;2023-03-02T10:34:41;8.90;92.80
28552;DHT22;15752;49.560;8.708;2023-03-02T10:37:13;9.20;92.90
28552;DHT22;15752;49.560;8.708;2023-03-02T10:39:42;9.20;92.80
28552;DHT22;15752;49.560;8.708;2023-03-02T10:42:14;9.10;92.70
28552;DHT22;15752;49.560;8.708;2023-03-02T10:44:49;9.20;92.70
28552;DHT22;15752;49.560;8.708;2023-03-02T10:47:20;9.40;92.70
28552;DHT22;15752;49.560;8.708;2023-03-02T10:49:50;9.30;92.70
28552;DHT22;15752;49.560;8.708;2023-03-02T10:52:21;9.40;92.70
28552;DHT22;15752;49.560;8.708;2023-03-02T10:55:01;9.50;92.60
28552;DHT22;15752;49.560;8.708;2023-03-02T10:57:35;9.50;92.50
28552;DHT22;15752;49.560;8.708;2023-03-02T11:00:15;9.50;92.50
28552;DHT22;15752;49.560;8.708;2023-03-02T11:02:49;9.50;92.50
28552;DHT22;15752;49.560;8.708;2023-03-02T11:05:26;9.70;92.50
28552;DHT22;15752;49.560;8.708;2023-03-02T11:07:57;9.60;92.40
28552;DHT22;15752;49.560;8.708;2023-03-02T11:10:28;9.80;92.50
28552;DHT22;15752;49.560;8.708;2023-03-02T11:12:59;9.80;92.50
28552;DHT22;15752;49.560;8.708;2023-03-02T11:15:35;9.80;92.40
28552;DHT22;15752;49.560;8.708;2023-03-02T11:18:16;9.80;92.30
28552;DHT22;15752;49.560;8.708;2023-03-02T11:20:53;10.00;92.40
28552;DHT22;15752;49.560;8.708;2023-03-02T11:23:35;9.90;92.40
28552;DHT22;15752;49.560;8.708;2023-03-02T11:26:14;10.00;92.30
28552;DHT22;15752;49.560;8.708;2023-03-02T11:28:52;10.00;92.30
28552;DHT22;15752;49.560;8.708;2023-03-02T11:31:31;10.10;92.30
28552;DHT22;15752;49.560;8.708;2023-03-02T11:34:09;10.10;92.60
28552;DHT22;15752;49.560;8.708;2023-03-02T11:37:00;10.20;92.20
28552;DHT22;15752;49.560;8.708;2023-03-02T11:39:47;10.20;92.20
28552;DHT22;15752;49.560;8.708;2023-03-02T11:42:25;10.30;92.20
28552;DHT22;15752;49.560;8.708;2023-03-02T11:44:59;10.30;92.30
28552;DHT22;15752;49.560;8.708;2023-03-02T11:47:31;10.40;92.20
28552;DHT22;15752;49.560;8.708;2023-03-02T11:50:03;10.40;92.20
28552;DHT22;15752;49.560;8.708;2023-03-02T11:52:37;10.50;92.20
28552;DHT22;15752;49.560;8.708;2023-03-02T11:55:16;10.50;92.00
28552;DHT22;15752;49.560;8.708;2023-03-02T11:57:48;10.60;92.10
28552;DHT22;15752;49.560;8.708;2023-03-02T12:00:28;10.70;92.10
28552;DHT22;15752;49.560;8.708;2023-03-02T12:03:01;10.80;92.30
28552;DHT22;15752;49.560;8.708;2023-03-02T12:05:32;10.80;92.00
28552;DHT22;15752;49.560;8.708;2023-03-02T12:08:04;10.80;92.00
28552;DHT22;15752;49.560;8.708;2023-03-02T12:10:37;10.80;91.90
28552;DHT22;15752;49.560;8.708;2023-03-02T12:13:14;10.90;91.90
28552;DHT22;15752;49.560;8.708;2023-03-02T12:15:45;11.00;91.90
28552;DHT22;15752;49.560;8.708;2023-03-02T12:18:46;11.00;92.20
28552;DHT22;15752;49.560;8.708;2023-03-02T12:21:17;11.10;91.80
28552;DHT22;15752;49.560;8.708;2023-03-02T12:23:56;11.10;91.70
28552;DHT22;15752;49.560;8.708;2023-03-02T12:26:30;11.30;91.70
28552;DHT22;15752;49.560;8.708;2023-03-02T12:29:05;11.20;91.60
28552;DHT22;15752;49.560;8.708;2023-03-02T12:31:50;11.20;91.60
28552;DHT22;15752;49.560;8.708;2023-03-02T12:34:33;11.30;91.60
28552;DHT22;15752;49.560;8.708;2023-03-02T12:37:13;11.30;91.50
28552;DHT22;15752;49.560;8.708;2023-03-02T12:43:28;11.40;91.40
28552;DHT22;15752;49.560;8.708;2023-03-02T12:46:28;11.40;91.50
28552;DHT22;15752;49.560;8.708;2023-03-02T12:49:19;11.50;91.40
28552;DHT22;15752;49.560;8.708;2023-03-02T12:51:56;11.60;91.50
28552;DHT22;15752;49.560;8.708;2023-03-02T12:54:28;11.60;91.40
28552;DHT22;15752;49.560;8.708;2023-03-02T12:57:06;11.60;91.30
28552;DHT22;15752;49.560;8.708;2023-03-02T12:59:39;11.80;91.30
28552;DHT22;15752;49.560;8.708;2023-03-02T13:02:17;11.70;91.30
28552;DHT22;15752;49.560;8.708;2023-03-02T13:04:52;11.80;91.10
28552;DHT22;15752;49.560;8.708;2023-03-02T13:07:25;11.90;91.50
28552;DHT22;15752;49.560;8.708;2023-03-02T13:09:56;11.80;91.10
28552;DHT22;15752;49.560;8.708;2023-03-02T13:12:26;11.90;91.10
28552;DHT22;15752;49.560;8.708;2023-03-02T13:14:57;11.90;91.10
28552;DHT22;15752;49.560;8.708;2023-03-02T13:17:27;12.00;91.10
28552;DHT22;15752;49.560;8.708;2023-03-02T13:19:58;12.00;91.00
28552;DHT22;15752;49.560;8.708;2023-03-02T13:22:29;12.10;91.00
28552;DHT22;15752;49.560;8.708;2023-03-02T13:24:59;12.10;90.90
28552;DHT22;15752;49.560;8.708;2023-03-02T13:27:29;12.10;90.90
28552;DHT22;15752;49.560;8.708;2023-03-02T13:30:08;12.20;90.80
28552;DHT22;15752;49.560;8.708;2023-03-02T13:32:40;12.20;90.60
28552;DHT22;15752;49.560;8.708;2023-03-02T13:35:20;12.20;90.70
28552;DHT22;15752;49.560;8.708;2023-03-02T13:38:00;12.30;90.60
28552;DHT22;15752;49.560;8.708;2023-03-02T13:40:48;12.40;90.60
28552;DHT22;15752;49.560;8.708;2023-03-02T13:43:33;12.30;90.70
28552;DHT22;15752;49.560;8.708;2023-03-02T13:46:05;12.40;90.70
28552;DHT22;15752;49.560;8.708;2023-03-02T13:48:34;12.40;90.60
28552;DHT22;15752;49.560;8.708;2023-03-02T13:51:14;12.50;90.50
28552;DHT22;15752;49.560;8.708;2023-03-02T13:53:52;12.50;90.40
28552;DHT22;15752;49.560;8.708;2023-03-02T13:56:25;12.50;90.40
28552;DHT22;15752;49.560;8.708;2023-03-02T13:58:56;12.50;90.50
28552;DHT22;15752;49.560;8.708;2023-03-02T14:01:25;12.60;90.50
28552;DHT22;15752;49.560;8.708;2023-03-02T14:03:57;12.60;90.50
28552;DHT22;15752;49.560;8.708;2023-03-02T14:06:27;12.70;90.50
28552;DHT22;15752;49.560;8.708;2023-03-02T14:08:59;12.70;90.40
28552;DHT22;15752;49.560;8.708;2023-03-02T14:11:33;12.80;90.30
28552;DHT22;15752;49.560;8.708;2023-03-02T14:14:04;12.80;90.30
28552;DHT22;15752;49.560;8.708;2023-03-02T14:16:34;12.80;90.20
28552;DHT22;15752;49.560;8.708;2023-03-02T14:19:03;12.90;90.20
28552;DHT22;15752;49.560;8.708;2023-03-02T14:21:32;12.90;90.10
28552;DHT22;15752;49.560;8.708;2023-03-02T14:24:03;12.90;90.00
28552;DHT22;15752;49.560;8.708;2023-03-02T14:26:34;13.00;90.00
28552;DHT22;15752;49.560;8.708;2023-03-02T14:29:11;13.00;90.00
28552;DHT22;15752;49.560;8.708;2023-03-02T14:31:44;13.00;89.90
28552;DHT22;15752;49.560;8.708;2023-03-02T14:34:13;13.00;89.90
28552;DHT22;15752;49.560;8.708;2023-03-02T14:36:43;13.00;89.60
28552;DHT22;15752;49.560;8.708;2023-03-02T14:39:19;13.10;89.70
28552;DHT22;15752;49.560;8.708;2023-03-02T14:41:49;13.10;89.50
28552;DHT22;15752;49.560;8.708;2023-03-02T14:44:21;13.10;89.50
28552;DHT22;15752;49.560;8.708;2023-03-02T14:46:50;13.10;89.50
28552;DHT22;15752;49.560;8.708;2023-03-02T14:49:19;13.10;89.50
28552;DHT22;15752;49.560;8.708;2023-03-02T14:51:56;13.20;89.40
28552;DHT22;15752;49.560;8.708;2023-03-02T14:54:33;13.20;89.00
28552;DHT22;15752;49.560;8.708;2023-03-02T14:57:04;13.20;88.80
28552;DHT22;15752;49.560;8.708;2023-03-02T14:59:38;13.20;89.00
28552;DHT22;15752;49.560;8.708;2023-03-02T15:02:08;13.20;88.50
28552;DHT22;15752;49.560;8.708;2023-03-02T15:04:51;13.20;88.40
28552;DHT22;15752;49.560;8.708;2023-03-02T15:07:24;13.30;88.60
28552;DHT22;15752;49.560;8.708;2023-03-02T15:09:55;13.30;88.40
28552;DHT22;15752;49.560;8.708;2023-03-02T15:12:24;13.30;88.20
28552;DHT22;15752;49.560;8.708;2023-03-02T15:14:53;13.30;88.50
28552;DHT22;15752;49.560;8.708;2023-03-02T15:17:21;13.30;88.20
28552;DHT22;15752;49.560;8.708;2023-03-02T15:19:50;13.30;87.90
28552;DHT22;15752;49.560;8.708;2023-03-02T15:22:19;13.30;88.10
28552;DHT22;15752;49.560;8.708;2023-03-02T15:24:47;13.30;88.10
28552;DHT22;15752;49.560;8.708;2023-03-02T15:27:17;13.30;87.90
28552;DHT22;15752;49.560;8.708;2023-03-02T15:29:48;13.30;87.50
28552;DHT22;15752;49.560;8.708;2023-03-02T15:32:17;13.30;87.90
28552;DHT22;15752;49.560;8.708;2023-03-02T15:34:46;13.30;87.60
28552;DHT22;15752;49.560;8.708;2023-03-02T15:37:15;13.30;87.60
28552;DHT22;15752;49.560;8.708;2023-03-02T15:39:43;13.30;87.70
28552;DHT22;15752;49.560;8.708;2023-03-02T15:42:12;13.30;87.60
28552;DHT22;15752;49.560;8.708;2023-03-02T15:44:42;13.30;87.40
28552;DHT22;15752;49.560;8.708;2023-03-02T15:47:10;13.30;87.40
28552;DHT22;15752;49.560;8.708;2023-03-02T15:49:39;13.30;87.60
28552;DHT22;15752;49.560;8.708;2023-03-02T15:52:08;13.30;87.40
28552;DHT22;15752;49.560;8.708;2023-03-02T15:54:37;13.30;88.30
28552;DHT22;15752;49.560;8.708;2023-03-02T15:57:06;13.30;87.40
28552;DHT22;15752;49.560;8.708;2023-03-02T15:59:35;13.20;87.30
28552;DHT22;15752;49.560;8.708;2023-03-02T16:02:05;13.20;87.20
28552;DHT22;15752;49.560;8.708;2023-03-02T16:04:35;13.20;86.90
28552;DHT22;15752;49.560;8.708;2023-03-02T16:07:03;13.20;87.30
28552;DHT22;15752;49.560;8.708;2023-03-02T16:09:33;13.20;87.00
28552;DHT22;15752;49.560;8.708;2023-03-02T16:12:02;13.20;86.90
28552;DHT22;15752;49.560;8.708;2023-03-02T16:14:33;13.20;86.70
28552;DHT22;15752;49.560;8.708;2023-03-02T16:17:02;13.20;86.80
28552;DHT22;15752;49.560;8.708;2023-03-02T16:22:04;13.10;86.80